createdAt,value
2019-03-13T00:00:57.315Z,4.70
2019-03-13T00:06:41.357Z,5.10
2019-03-13T00:09:30.098Z,4.75
2019-03-13T00:12:18.707Z,5.67
2019-03-13T00:21:29.536Z,4.95
2019-03-13T00:24:07.985Z,4.47
2019-03-13T00:26:56.727Z,4.47
2019-03-13T00:35:49.996Z,4.40
2019-03-13T00:38:50.488Z,5.50
2019-03-13T00:41:21.193Z,4.62
2019-03-13T00:44:02.143Z,7.95
2019-03-13T00:46:43.409Z,5.60
2019-03-13T00:49:24.937Z,5.95
2019-03-13T00:52:06.449Z,5.85
2019-03-13T00:54:47.391Z,9.20
2019-03-13T00:57:28.359Z,5.58
2019-03-13T01:00:09.981Z,5.65
2019-03-13T01:02:50.908Z,5.37
2019-03-13T01:05:53.235Z,11.08
2019-03-13T01:08:22.489Z,4.60
2019-03-13T01:11:03.686Z,7.85
2019-03-13T01:13:44.474Z,5.08
2019-03-13T01:16:25.970Z,5.05
2019-03-13T01:19:07.519Z,4.70
2019-03-13T01:21:48.822Z,5.03
2019-03-13T01:24:29.494Z,7.15
2019-03-13T01:27:10.410Z,5.30
2019-03-13T01:29:50.163Z,5.90
2019-03-13T01:32:57.617Z,5.85
2019-03-13T01:35:50.278Z,8.03
2019-03-13T01:38:38.820Z,9.05
2019-03-13T01:41:39.401Z,7.15
2019-03-13T01:44:11.025Z,6.92
2019-03-13T01:46:52.250Z,7.83
2019-03-13T01:49:33.835Z,7.60
2019-03-13T01:52:15.288Z,6.87
2019-03-13T01:54:56.934Z,7.62
2019-03-13T01:57:38.442Z,10.53
2019-03-13T02:00:18.416Z,8.38
2019-03-13T02:03:07.552Z,9.45
2019-03-13T02:05:56.235Z,8.60
2019-03-13T02:08:44.900Z,9.20
2019-03-13T02:11:33.559Z,9.25
2019-03-13T02:17:31.679Z,10.43
2019-03-13T02:20:20.519Z,7.42
2019-03-13T02:23:23.149Z,8.38
2019-03-13T02:25:59.444Z,7.25
2019-03-13T02:28:48.220Z,7.85
2019-03-13T02:31:36.784Z,7.70
2019-03-13T02:37:19.862Z,6.87
2019-03-13T02:43:16.057Z,5.83
2019-03-13T02:45:57.569Z,5.15
2019-03-13T02:48:39.290Z,8.68
2019-03-13T02:51:20.482Z,13.65
2019-03-13T02:54:02.072Z,8.90
2019-03-13T02:56:43.427Z,6.22
2019-03-13T02:59:24.619Z,4.67
2019-03-13T03:02:30.889Z,3.77
2019-03-13T03:05:12.542Z,4.25
2019-03-13T03:07:53.988Z,4.15
2019-03-13T03:10:35.376Z,7.67
2019-03-13T03:13:16.619Z,5.17
2019-03-13T03:15:57.976Z,3.95
2019-03-13T03:18:39.753Z,7.22
2019-03-13T03:21:21.016Z,3.90
2019-03-13T03:24:02.515Z,4.17
2019-03-13T03:26:44.152Z,5.62
2019-03-13T03:29:25.839Z,8.38
2019-03-13T03:32:07.534Z,6.65
2019-03-13T03:34:48.539Z,3.40
2019-03-13T03:37:29.340Z,10.05
2019-03-13T03:40:10.872Z,4.22
2019-03-13T03:42:52.122Z,3.47
2019-03-13T03:45:33.622Z,7.03
2019-03-13T03:48:14.770Z,5.20
2019-03-13T03:50:56.522Z,3.67
2019-03-13T03:53:37.561Z,3.87
2019-03-13T03:56:18.968Z,10.23
2019-03-13T03:58:58.717Z,10.38
2019-03-13T04:04:57.064Z,3.60
2019-03-13T04:07:44.779Z,6.72
2019-03-13T04:10:23.892Z,4.75
2019-03-13T04:13:26.833Z,5.55
2019-03-13T04:18:58.312Z,3.77
2019-03-13T04:21:47.044Z,6.53
2019-03-13T04:27:45.057Z,6.25
2019-03-13T04:30:33.671Z,3.70
2019-03-13T04:33:22.328Z,5.90
2019-03-13T04:36:11.178Z,4.78
2019-03-13T04:39:00.315Z,6.10
2019-03-13T04:44:51.312Z,9.65
2019-03-13T04:47:32.744Z,10.85
2019-03-13T04:50:13.688Z,4.50
2019-03-13T04:52:54.945Z,11.33
2019-03-13T04:55:35.958Z,4.65
2019-03-13T04:58:15.650Z,4.47
2019-03-13T05:01:04.564Z,7.17
2019-03-13T05:04:07.242Z,5.55
2019-03-13T05:06:43.756Z,10.10
2019-03-13T05:09:51.341Z,7.37
2019-03-13T05:12:40.044Z,6.45
2019-03-13T05:18:38.078Z,4.10
2019-03-13T05:21:40.926Z,6.15
2019-03-13T05:27:12.756Z,13.00
2019-03-13T05:30:01.717Z,9.25
2019-03-13T05:36:00.609Z,9.48
2019-03-13T05:44:50.078Z,16.48
2019-03-13T05:47:31.621Z,7.67
2019-03-13T05:50:12.737Z,7.12
2019-03-13T05:52:54.195Z,9.20
2019-03-13T05:55:35.588Z,9.58
2019-03-13T05:58:17.097Z,6.97
2019-03-13T06:00:58.230Z,7.37
2019-03-13T06:03:39.907Z,9.38
2019-03-13T06:06:21.251Z,11.20
2019-03-13T06:09:02.936Z,6.22
2019-03-13T06:11:44.238Z,6.87
2019-03-13T06:14:25.830Z,7.15
2019-03-13T06:17:07.274Z,11.35
2019-03-13T06:19:48.556Z,11.43
2019-03-13T06:22:28.488Z,8.10
2019-03-13T06:25:17.564Z,11.43
2019-03-13T06:28:06.118Z,5.75
2019-03-13T06:30:54.788Z,8.98
2019-03-13T06:39:48.162Z,15.32
2019-03-13T06:42:36.873Z,10.88
2019-03-13T06:45:17.981Z,10.23
2019-03-13T06:47:59.171Z,11.45
2019-03-13T06:50:40.638Z,8.63
2019-03-13T06:53:22.220Z,9.43
2019-03-13T06:56:03.009Z,11.05
2019-03-13T07:05:09.604Z,6.90
2019-03-13T07:08:09.201Z,12.82
2019-03-13T07:11:15.999Z,12.28
2019-03-13T07:14:19.537Z,10.55
2019-03-13T07:17:27.597Z,10.82
2019-03-13T07:20:15.962Z,8.68
2019-03-13T07:23:12.662Z,10.78
2019-03-13T07:29:21.057Z,7.53
2019-03-13T07:32:28.836Z,12.05
2019-03-13T07:35:36.341Z,8.15
2019-03-13T07:38:43.896Z,12.28
2019-03-13T07:41:51.399Z,4.05
2019-03-13T07:45:05.942Z,16.70
2019-03-13T07:47:55.816Z,9.33
2019-03-13T07:51:11.142Z,7.58
2019-03-13T07:54:00.633Z,8.70
2019-03-13T07:57:01.118Z,8.45
2019-03-13T08:00:01.489Z,7.17
2019-03-13T08:03:08.059Z,9.23
2019-03-13T08:06:08.326Z,5.58
2019-03-13T08:09:14.812Z,8.93
2019-03-13T08:12:26.027Z,4.75
2019-03-13T08:15:15.730Z,6.55
2019-03-13T08:18:15.974Z,7.47
2019-03-13T08:21:16.218Z,6.05
2019-03-13T08:24:19.322Z,11.20
2019-03-13T08:27:18.888Z,5.42
2019-03-13T08:30:20.418Z,9.45
2019-03-13T08:36:31.579Z,4.85
2019-03-13T08:39:23.208Z,5.12
2019-03-13T08:42:23.588Z,4.30
2019-03-13T08:45:24.221Z,5.15
2019-03-13T08:48:26.075Z,6.65
2019-03-13T08:51:20.022Z,13.48
2019-03-13T08:54:25.740Z,5.40
2019-03-13T08:57:15.231Z,9.00
2019-03-13T09:00:13.506Z,8.25
2019-03-13T09:03:18.973Z,8.35
2019-03-13T09:06:10.309Z,7.62
2019-03-13T09:09:27.154Z,13.53
2019-03-13T09:12:27.128Z,5.28
2019-03-13T09:15:16.434Z,7.47
2019-03-13T09:18:16.809Z,6.75
2019-03-13T09:24:24.908Z,8.68
2019-03-13T09:27:32.400Z,3.42
2019-03-13T09:30:39.960Z,7.78
2019-03-13T09:37:00.097Z,6.15
2019-03-13T09:39:54.597Z,9.03
2019-03-13T09:42:57.972Z,8.40
2019-03-13T09:48:57.440Z,8.50
2019-03-13T09:51:57.081Z,6.90
2019-03-13T09:58:26.748Z,3.37
2019-03-13T10:01:24.090Z,4.10
2019-03-13T10:04:31.605Z,4.65
2019-03-13T10:07:39.045Z,7.78
2019-03-13T10:10:46.797Z,3.98
2019-03-13T10:13:54.344Z,3.47
2019-03-13T10:17:10.796Z,2.00
2019-03-13T10:20:11.088Z,1.65
2019-03-13T10:23:33.325Z,2.50
2019-03-13T10:26:28.251Z,4.33
2019-03-13T10:29:35.815Z,3.35
2019-03-13T10:32:43.823Z,3.90
2019-03-13T10:35:51.768Z,2.65
2019-03-13T10:38:51.900Z,2.55
2019-03-13T10:42:03.288Z,1.35
2019-03-13T10:44:53.161Z,1.10
2019-03-13T10:47:40.568Z,2.35
2019-03-13T10:50:43.138Z,2.00
2019-03-13T10:53:42.724Z,2.33
2019-03-13T10:56:42.468Z,3.25
2019-03-13T10:59:28.345Z,2.62
2019-03-13T11:02:36.155Z,2.92
2019-03-13T11:05:43.648Z,4.03
2019-03-13T11:08:51.181Z,2.33
2019-03-13T11:11:44.968Z,4.67
2019-03-13T11:14:52.670Z,2.62
2019-03-13T11:18:00.424Z,1.37
2019-03-13T11:21:07.942Z,0.93
2019-03-13T11:24:15.402Z,2.37
2019-03-13T11:27:23.224Z,1.02
2019-03-13T11:33:58.953Z,1.15
2019-03-13T11:40:18.531Z,3.77
2019-03-13T11:43:18.826Z,1.15
2019-03-13T11:46:18.440Z,1.98
2019-03-13T11:49:21.701Z,2.00
2019-03-13T11:52:22.389Z,0.62
2019-03-13T11:55:22.318Z,2.80
2019-03-13T11:58:22.823Z,1.42
2019-03-13T12:04:25.823Z,0.65
2019-03-13T12:07:26.268Z,1.57
2019-03-13T12:10:25.851Z,1.75
2019-03-13T12:13:26.090Z,1.10
2019-03-13T12:16:21.358Z,1.15
2019-03-13T12:19:21.301Z,2.27
2019-03-13T12:22:33.211Z,0.72
2019-03-13T12:25:26.597Z,4.17
2019-03-13T12:28:26.827Z,1.47
2019-03-13T12:31:15.507Z,1.22
2019-03-13T12:34:15.464Z,1.62
2019-03-13T12:40:07.800Z,3.98
2019-03-13T12:43:04.988Z,2.25
2019-03-13T12:46:18.576Z,1.75
2019-03-13T12:52:10.416Z,2.00
2019-03-13T12:55:10.867Z,1.10
2019-03-13T12:58:11.018Z,2.10
2019-03-13T13:04:09.759Z,1.98
2019-03-13T13:07:09.359Z,2.10
2019-03-13T13:13:00.451Z,2.12
2019-03-13T13:16:00.778Z,5.10
2019-03-13T13:19:01.425Z,4.53
2019-03-13T13:21:42.939Z,3.70
2019-03-13T13:24:24.376Z,1.57
2019-03-13T13:27:06.066Z,1.27
2019-03-13T13:29:45.864Z,1.45
2019-03-13T13:32:34.787Z,2.47
2019-03-13T13:35:39.583Z,2.00
2019-03-13T13:38:16.147Z,2.47
2019-03-13T13:49:59.814Z,3.15
2019-03-13T13:52:47.405Z,4.37
2019-03-13T13:55:36.076Z,1.32
2019-03-13T14:04:19.079Z,6.12
2019-03-13T14:07:07.720Z,1.57
2019-03-13T14:12:55.096Z,3.33
2019-03-13T14:15:43.716Z,1.52
2019-03-13T14:18:43.927Z,2.87
2019-03-13T14:27:15.118Z,0.85
2019-03-13T14:30:03.972Z,1.47
2019-03-13T14:32:44.703Z,0.90
2019-03-13T14:35:26.147Z,0.70
2019-03-13T14:38:06.084Z,0.70
2019-03-13T14:44:03.820Z,1.10
2019-03-13T14:53:00.456Z,1.72
2019-03-13T14:58:58.860Z,1.15
2019-03-13T15:05:11.022Z,1.42
2019-03-13T15:07:47.158Z,2.90
2019-03-13T15:10:36.222Z,1.75
2019-03-13T15:16:34.052Z,1.37
2019-03-13T15:19:22.726Z,2.10
2019-03-13T15:22:11.373Z,1.22
2019-03-13T15:25:11.769Z,1.62
2019-03-13T15:33:33.882Z,1.87
2019-03-13T15:36:15.504Z,1.62
2019-03-13T15:38:57.179Z,1.17
2019-03-13T15:41:38.789Z,1.47
2019-03-13T15:44:20.033Z,2.17
2019-03-13T15:47:01.063Z,1.17
2019-03-13T15:49:42.722Z,2.45
2019-03-13T15:52:24.554Z,0.98
2019-03-13T15:55:05.394Z,1.17
2019-03-13T15:57:46.975Z,1.72
2019-03-13T16:00:27.797Z,1.50
2019-03-13T16:03:09.283Z,1.57
2019-03-13T16:05:51.083Z,2.12
2019-03-13T16:08:32.200Z,3.33
2019-03-13T16:11:13.125Z,2.50
2019-03-13T16:13:54.287Z,3.50
2019-03-13T16:16:35.522Z,4.15
2019-03-13T16:19:17.351Z,2.30
2019-03-13T16:21:58.499Z,1.85
2019-03-13T16:24:38.176Z,1.85
2019-03-13T16:27:26.803Z,1.92
2019-03-13T16:39:38.669Z,3.25
2019-03-13T16:42:27.270Z,2.75
2019-03-13T16:48:11.791Z,2.35
2019-03-13T16:51:01.092Z,3.05
2019-03-13T16:54:08.773Z,2.72
2019-03-13T16:56:57.500Z,3.67
2019-03-13T16:59:46.175Z,10.48
2019-03-13T17:02:34.811Z,7.10
2019-03-13T17:11:31.852Z,3.60
2019-03-13T17:14:20.488Z,2.72
2019-03-13T17:17:09.150Z,4.28
2019-03-13T17:19:58.089Z,4.95
2019-03-13T17:25:48.715Z,3.95
2019-03-13T17:28:29.522Z,9.13
2019-03-13T17:31:10.342Z,4.37
2019-03-13T17:33:51.840Z,9.60
2019-03-13T17:36:33.365Z,6.87
2019-03-13T17:39:14.925Z,7.00
2019-03-13T17:41:56.471Z,6.25
2019-03-13T17:44:37.307Z,7.22
2019-03-13T17:47:18.560Z,5.87
2019-03-13T17:49:59.826Z,4.17
2019-03-13T17:52:41.445Z,6.67
2019-03-13T17:55:22.929Z,4.78
2019-03-13T17:58:02.587Z,12.05
2019-03-13T18:04:01.168Z,7.55
2019-03-13T18:09:59.610Z,8.50
2019-03-13T18:13:02.261Z,4.15
2019-03-13T18:15:38.619Z,5.40
2019-03-13T18:18:27.241Z,5.37
2019-03-13T18:21:16.192Z,4.58
2019-03-13T18:24:04.806Z,3.95
2019-03-13T18:26:46.429Z,5.53
2019-03-13T18:29:27.951Z,6.20
2019-03-13T18:32:09.543Z,4.55
2019-03-13T18:34:55.652Z,9.70
2019-03-13T18:37:36.911Z,7.65
2019-03-13T18:40:18.436Z,10.00
2019-03-13T18:43:00.306Z,6.25
2019-03-13T18:45:41.428Z,7.08
2019-03-13T18:48:23.063Z,9.98
2019-03-13T18:51:04.571Z,7.47
2019-03-13T18:53:45.484Z,6.00
2019-03-13T18:56:26.817Z,7.33
2019-03-13T18:59:08.205Z,9.23
2019-03-13T19:01:50.130Z,7.53
2019-03-13T19:04:31.589Z,9.53
2019-03-13T19:07:13.037Z,6.40
2019-03-13T19:09:53.857Z,9.25
2019-03-13T19:12:35.535Z,11.95
2019-03-13T19:15:19.321Z,11.00
2019-03-13T19:18:01.044Z,6.87
2019-03-13T19:20:42.331Z,6.75
2019-03-13T19:23:23.672Z,7.40
2019-03-13T19:26:06.691Z,8.10
2019-03-13T19:28:48.101Z,9.48
2019-03-13T19:31:29.637Z,8.18
2019-03-13T19:34:11.309Z,9.85
2019-03-13T19:36:52.708Z,5.60
2019-03-13T19:39:33.837Z,7.75
2019-03-13T19:42:17.393Z,6.80
2019-03-13T19:44:58.931Z,6.03
2019-03-13T19:47:48.308Z,6.72
2019-03-13T19:50:36.958Z,5.30
2019-03-13T19:53:25.722Z,6.95
2019-03-13T19:56:15.926Z,8.40
2019-03-13T20:02:22.360Z,5.47
2019-03-13T20:11:08.884Z,8.18
2019-03-13T20:13:57.592Z,9.40
2019-03-13T20:16:46.749Z,8.78
2019-03-13T20:19:36.955Z,10.95
2019-03-13T20:22:40.140Z,7.75
2019-03-13T20:25:17.903Z,11.15
2019-03-13T20:27:59.229Z,16.50
2019-03-13T20:30:40.906Z,9.88
2019-03-13T20:33:22.270Z,10.58
2019-03-13T20:36:03.924Z,10.68
2019-03-13T20:38:47.278Z,13.32
2019-03-13T20:41:27.660Z,12.10
2019-03-13T20:44:09.035Z,18.42
2019-03-13T20:46:49.816Z,10.40
2019-03-13T20:49:31.390Z,9.10
2019-03-13T20:52:12.840Z,8.20
2019-03-13T20:54:54.205Z,9.88
2019-03-13T20:57:35.717Z,8.18
2019-03-13T21:00:17.870Z,11.10
2019-03-13T21:02:58.982Z,11.73
2019-03-13T21:05:40.429Z,10.75
2019-03-13T21:08:21.454Z,5.92
2019-03-13T21:11:02.902Z,9.45
2019-03-13T21:13:44.643Z,7.65
2019-03-13T21:16:26.066Z,7.22
2019-03-13T21:19:07.399Z,8.28
2019-03-13T21:21:48.264Z,8.78
2019-03-13T21:24:29.455Z,13.65
2019-03-13T21:27:10.863Z,12.00
2019-03-13T21:29:52.270Z,6.17
2019-03-13T21:32:33.539Z,10.30
2019-03-13T21:35:15.244Z,14.45
2019-03-13T21:37:55.111Z,15.25
2019-03-13T21:40:43.781Z,11.38
2019-03-13T21:46:41.580Z,17.35
2019-03-13T21:52:39.522Z,10.93
2019-03-13T21:55:28.813Z,15.20
2019-03-13T21:58:17.449Z,25.30
2019-03-13T22:04:46.467Z,12.23
2019-03-13T22:13:53.878Z,13.00
2019-03-13T22:19:51.862Z,16.70
2019-03-13T22:22:40.870Z,30.37
2019-03-13T22:25:29.472Z,21.07
2019-03-13T22:31:19.638Z,18.12
2019-03-13T22:33:59.536Z,13.65
2019-03-13T22:36:48.950Z,19.05
2019-03-13T22:39:37.530Z,16.15
2019-03-13T22:45:20.615Z,19.35
2019-03-13T23:00:05.945Z,12.73
2019-03-13T23:02:44.848Z,9.88
2019-03-13T23:05:45.474Z,16.37
2019-03-13T23:11:33.197Z,13.83
2019-03-13T23:17:30.865Z,14.98
2019-03-13T23:20:19.711Z,8.58
2019-03-13T23:23:08.594Z,13.62
2019-03-13T23:29:06.363Z,15.32
2019-03-13T23:31:47.973Z,9.38
2019-03-13T23:34:29.235Z,13.65
2019-03-13T23:37:11.082Z,11.97
2019-03-13T23:39:52.474Z,27.90
2019-03-13T23:42:34.046Z,16.48
2019-03-13T23:45:15.819Z,13.62
2019-03-13T23:47:57.716Z,11.48
2019-03-13T23:50:39.269Z,15.03
2019-03-13T23:53:20.731Z,15.80
2019-03-13T23:56:02.145Z,15.40
2019-03-13T23:58:43.505Z,13.85
